createdAt,value
2018-02-27T00:02:19.421Z,2.90
2018-02-27T00:04:46.885Z,2.93
2018-02-27T00:07:14.321Z,3.00
2018-02-27T00:09:41.805Z,2.77
2018-02-27T00:12:09.262Z,3.10
2018-02-27T00:14:36.712Z,3.50
2018-02-27T00:17:04.209Z,2.43
2018-02-27T00:19:31.747Z,2.80
2018-02-27T00:21:59.540Z,2.97
2018-02-27T00:24:26.989Z,2.53
2018-02-27T00:26:54.443Z,2.70
2018-02-27T00:29:21.906Z,2.83
2018-02-27T00:31:49.629Z,2.77
2018-02-27T00:34:17.321Z,2.80
2018-02-27T00:36:44.766Z,2.70
2018-02-27T00:39:12.418Z,1.70
2018-02-27T00:41:39.877Z,3.07
2018-02-27T00:44:07.343Z,3.50
2018-02-27T00:46:35.057Z,3.50
2018-02-27T00:49:02.512Z,2.90
2018-02-27T00:51:29.959Z,3.97
2018-02-27T00:53:57.425Z,3.10
2018-02-27T00:56:24.865Z,3.63
2018-02-27T00:58:52.605Z,3.80
2018-02-27T01:01:20.054Z,3.20
2018-02-27T01:03:47.493Z,4.00
2018-02-27T01:06:14.958Z,4.67
2018-02-27T01:08:42.401Z,5.10
2018-02-27T01:11:09.873Z,3.63
2018-02-27T01:13:37.318Z,5.00
2018-02-27T01:16:04.757Z,4.77
2018-02-27T01:18:32.280Z,3.83
2018-02-27T01:20:59.797Z,4.20
2018-02-27T01:23:27.511Z,4.50
2018-02-27T01:25:54.953Z,5.10
2018-02-27T01:28:22.392Z,4.50
2018-02-27T01:30:49.853Z,4.43
2018-02-27T01:33:17.295Z,4.30
2018-02-27T01:35:44.933Z,4.87
2018-02-27T01:38:12.377Z,4.37
2018-02-27T01:40:39.817Z,4.77
2018-02-27T01:43:07.293Z,5.07
2018-02-27T01:45:34.736Z,4.63
2018-02-27T01:48:02.516Z,4.43
2018-02-27T01:50:29.968Z,5.40
2018-02-27T01:52:57.411Z,6.23
2018-02-27T01:55:24.893Z,5.90
2018-02-27T01:57:52.338Z,5.63
2018-02-27T02:00:19.961Z,5.10
2018-02-27T02:02:47.401Z,5.17
2018-02-27T02:05:14.941Z,5.47
2018-02-27T02:07:42.405Z,5.50
2018-02-27T02:10:09.841Z,5.53
2018-02-27T02:12:37.314Z,6.13
2018-02-27T02:15:04.753Z,4.90
2018-02-27T02:17:32.201Z,5.83
2018-02-27T02:19:59.670Z,6.90
2018-02-27T02:22:27.113Z,6.30
2018-02-27T02:24:54.956Z,5.43
2018-02-27T02:27:22.416Z,5.03
2018-02-27T02:29:49.868Z,4.73
2018-02-27T02:32:17.342Z,6.13
2018-02-27T02:34:44.790Z,5.70
2018-02-27T02:37:12.520Z,5.90
2018-02-27T02:39:40.089Z,4.53
2018-02-27T02:42:24.657Z,5.83
2018-02-27T02:44:52.121Z,6.23
2018-02-27T02:47:19.561Z,6.13
2018-02-27T02:49:47.025Z,4.80
2018-02-27T02:52:14.486Z,6.47
2018-02-27T02:54:41.964Z,5.43
2018-02-27T02:57:09.421Z,5.10
2018-02-27T02:59:36.881Z,5.47
2018-02-27T03:02:04.985Z,4.80
2018-02-27T03:04:32.433Z,7.07
2018-02-27T03:06:59.910Z,5.13
2018-02-27T03:09:27.348Z,4.60
2018-02-27T03:11:54.788Z,3.97
2018-02-27T03:14:22.380Z,1.33
2018-02-27T03:16:49.820Z,2.77
2018-02-27T03:19:17.317Z,2.33
2018-02-27T03:21:44.761Z,2.33
2018-02-27T03:24:12.260Z,2.13
2018-02-27T03:26:39.728Z,2.67
2018-02-27T03:29:07.168Z,2.77
2018-02-27T03:31:34.641Z,2.10
2018-02-27T03:34:02.099Z,1.70
2018-02-27T03:36:29.540Z,1.80
2018-02-27T03:38:57.005Z,1.67
2018-02-27T03:41:24.446Z,2.60
2018-02-27T03:43:51.921Z,1.47
2018-02-27T03:46:19.361Z,2.23
2018-02-27T03:48:46.936Z,1.90
2018-02-27T03:51:14.474Z,1.60
2018-02-27T03:53:41.947Z,1.83
2018-02-27T03:56:09.566Z,1.83
2018-02-27T03:58:37.013Z,1.43
2018-02-27T04:01:04.931Z,1.60
2018-02-27T04:03:32.457Z,1.97
2018-02-27T04:05:59.921Z,2.00
2018-02-27T04:08:27.622Z,2.00
2018-02-27T04:10:55.063Z,1.80
2018-02-27T04:13:22.512Z,1.80
2018-02-27T04:15:49.977Z,1.70
2018-02-27T04:18:17.728Z,2.40
2018-02-27T04:20:45.361Z,1.47
2018-02-27T04:23:12.829Z,1.80
2018-02-27T04:25:40.269Z,1.77
2018-02-27T04:28:07.748Z,1.53
2018-02-27T04:30:35.204Z,1.20
2018-02-27T04:33:02.831Z,1.53
2018-02-27T04:35:30.289Z,1.90
2018-02-27T04:37:57.737Z,2.87
2018-02-27T04:40:25.198Z,1.57
2018-02-27T04:42:52.641Z,1.20
2018-02-27T04:45:20.151Z,1.53
2018-02-27T04:47:47.783Z,1.90
2018-02-27T04:50:15.294Z,1.50
2018-02-27T04:52:42.757Z,1.80
2018-02-27T04:55:10.213Z,2.10
2018-02-27T04:57:37.953Z,1.83
2018-02-27T05:00:05.393Z,1.77
2018-02-27T05:02:32.841Z,1.77
2018-02-27T05:05:00.309Z,1.90
2018-02-27T05:07:27.753Z,1.80
2018-02-27T05:09:55.397Z,1.63
2018-02-27T05:12:22.853Z,1.57
2018-02-27T05:14:50.290Z,1.37
2018-02-27T05:17:17.754Z,1.90
2018-02-27T05:19:45.193Z,1.60
2018-02-27T05:22:12.674Z,1.13
2018-02-27T05:24:40.113Z,1.27
2018-02-27T05:27:07.556Z,1.70
2018-02-27T05:29:35.017Z,1.00
2018-02-27T05:32:02.476Z,2.27
2018-02-27T05:34:30.813Z,1.80
2018-02-27T05:36:58.305Z,3.33
2018-02-27T05:39:25.753Z,1.60
2018-02-27T05:41:53.240Z,1.40
2018-02-27T05:44:20.697Z,1.17
2018-02-27T05:46:48.561Z,1.20
2018-02-27T05:49:16.048Z,1.63
2018-02-27T05:51:43.480Z,1.20
2018-02-27T05:54:10.949Z,1.93
2018-02-27T05:56:38.389Z,1.47
2018-02-27T05:59:06.169Z,1.33
2018-02-27T06:01:33.617Z,1.00
2018-02-27T06:04:01.073Z,2.30
2018-02-27T06:06:28.537Z,1.47
2018-02-27T06:08:56.010Z,2.33
2018-02-27T06:11:23.481Z,1.17
2018-02-27T06:13:50.937Z,1.53
2018-02-27T06:16:18.394Z,1.23
2018-02-27T06:18:45.854Z,1.57
2018-02-27T06:21:13.935Z,1.30
2018-02-27T06:23:41.416Z,1.30
2018-02-27T06:26:08.861Z,1.20
2018-02-27T06:28:36.316Z,1.30
2018-02-27T06:31:03.789Z,1.73
2018-02-27T06:33:31.481Z,1.70
2018-02-27T06:35:59.099Z,1.00
2018-02-27T06:38:26.536Z,1.53
2018-02-27T06:40:53.977Z,1.23
2018-02-27T06:43:21.473Z,1.03
2018-02-27T06:45:48.921Z,0.90
2018-02-27T06:48:16.548Z,1.30
2018-02-27T06:50:44.041Z,2.03
2018-02-27T06:53:11.510Z,1.60
2018-02-27T06:55:38.977Z,1.17
2018-02-27T06:58:06.426Z,1.73
2018-02-27T07:00:34.085Z,1.40
2018-02-27T07:03:02.525Z,1.37
2018-02-27T07:05:29.973Z,1.80
2018-02-27T07:07:57.821Z,1.40
2018-02-27T07:10:25.261Z,1.00
2018-02-27T07:12:52.876Z,1.47
2018-02-27T07:15:20.320Z,1.30
2018-02-27T07:17:47.774Z,1.47
2018-02-27T07:20:15.237Z,1.50
2018-02-27T07:22:42.690Z,1.67
2018-02-27T07:25:10.161Z,1.90
2018-02-27T07:27:37.605Z,1.53
2018-02-27T07:30:05.061Z,1.60
2018-02-27T07:32:32.520Z,3.10
2018-02-27T07:35:00.313Z,1.23
2018-02-27T07:37:27.973Z,1.23
2018-02-27T07:39:55.422Z,2.30
2018-02-27T07:42:22.865Z,1.30
2018-02-27T07:44:50.370Z,1.83
2018-02-27T07:47:17.884Z,2.33
2018-02-27T07:49:45.313Z,1.27
2018-02-27T07:52:12.753Z,1.13
2018-02-27T07:54:41.046Z,1.30
2018-02-27T07:57:08.510Z,2.00
2018-02-27T07:59:35.981Z,1.00
2018-02-27T08:02:03.490Z,3.23
2018-02-27T08:04:30.928Z,1.77
2018-02-27T08:06:58.395Z,1.90
2018-02-27T08:09:26.330Z,1.83
2018-02-27T08:11:53.777Z,1.67
2018-02-27T08:14:21.345Z,1.50
2018-02-27T08:16:48.791Z,1.73
2018-02-27T08:19:16.233Z,1.90
2018-02-27T08:21:43.692Z,1.50
2018-02-27T08:24:11.145Z,1.90
2018-02-27T08:26:38.811Z,1.80
2018-02-27T08:29:06.334Z,1.80
2018-02-27T08:31:33.782Z,1.37
2018-02-27T08:34:01.296Z,1.53
2018-02-27T08:36:28.743Z,2.00
2018-02-27T08:38:56.459Z,1.93
2018-02-27T08:41:24.345Z,1.97
2018-02-27T08:43:51.962Z,1.57
2018-02-27T08:46:19.440Z,1.73
2018-02-27T08:48:46.879Z,2.03
2018-02-27T08:51:14.670Z,2.60
2018-02-27T08:53:42.121Z,1.57
2018-02-27T08:56:09.604Z,2.87
2018-02-27T08:58:37.043Z,2.30
2018-02-27T09:01:04.522Z,2.40
2018-02-27T09:03:31.999Z,2.20
2018-02-27T09:05:59.438Z,2.60
2018-02-27T09:08:26.888Z,2.07
2018-02-27T09:10:54.349Z,3.03
2018-02-27T09:13:21.793Z,3.03
2018-02-27T09:15:49.420Z,2.10
2018-02-27T09:18:16.860Z,2.43
2018-02-27T09:20:44.421Z,2.37
2018-02-27T09:23:11.905Z,2.70
2018-02-27T09:25:39.345Z,1.70
2018-02-27T09:28:07.083Z,2.63
2018-02-27T09:30:34.521Z,3.17
2018-02-27T09:33:02.019Z,2.93
2018-02-27T09:35:29.481Z,2.77
2018-02-27T09:37:56.953Z,2.50
2018-02-27T09:40:25.197Z,1.97
2018-02-27T09:42:52.685Z,2.73
2018-02-27T09:45:20.148Z,2.40
2018-02-27T09:47:47.623Z,2.60
2018-02-27T09:50:15.062Z,1.97
2018-02-27T09:52:42.628Z,2.57
2018-02-27T09:55:10.089Z,2.43
2018-02-27T09:57:37.541Z,2.40
2018-02-27T10:00:05.009Z,3.23
2018-02-27T10:02:32.735Z,2.73
2018-02-27T10:05:00.350Z,1.90
2018-02-27T10:07:27.813Z,2.73
2018-02-27T10:09:55.273Z,2.73
2018-02-27T10:12:22.737Z,3.53
2018-02-27T10:14:50.210Z,2.30
2018-02-27T10:17:17.811Z,3.10
2018-02-27T10:19:45.284Z,3.00
2018-02-27T10:22:12.806Z,2.60
2018-02-27T10:24:40.273Z,2.67
2018-02-27T10:27:08.507Z,2.70
2018-02-27T10:29:36.184Z,2.50
2018-02-27T10:32:03.632Z,3.00
2018-02-27T10:34:31.072Z,3.17
2018-02-27T10:36:58.553Z,3.00
2018-02-27T10:39:26.036Z,3.03
2018-02-27T10:41:53.481Z,3.30
2018-02-27T10:44:20.927Z,2.70
2018-02-27T10:46:48.377Z,3.87
2018-02-27T10:49:15.869Z,3.90
2018-02-27T10:51:43.310Z,2.87
2018-02-27T10:54:10.977Z,4.03
2018-02-27T10:56:38.444Z,3.93
2018-02-27T10:59:05.899Z,4.30
2018-02-27T11:01:33.364Z,2.87
2018-02-27T11:04:00.806Z,3.70
2018-02-27T11:06:28.521Z,3.40
2018-02-27T11:08:55.995Z,3.57
2018-02-27T11:11:23.442Z,3.07
2018-02-27T11:13:50.943Z,3.23
2018-02-27T11:16:18.405Z,3.00
2018-02-27T11:18:45.884Z,2.70
2018-02-27T11:21:13.326Z,3.50
2018-02-27T11:23:40.771Z,3.30
2018-02-27T11:26:09.148Z,3.53
2018-02-27T11:28:36.597Z,3.70
2018-02-27T11:31:04.345Z,3.20
2018-02-27T11:33:31.789Z,3.67
2018-02-27T11:35:59.241Z,3.23
2018-02-27T11:38:26.744Z,3.60
2018-02-27T11:40:54.189Z,3.60
2018-02-27T11:43:21.893Z,4.17
2018-02-27T11:45:49.433Z,4.60
2018-02-27T11:48:16.889Z,3.93
2018-02-27T11:50:44.348Z,4.80
2018-02-27T11:53:11.791Z,3.43
2018-02-27T11:55:39.477Z,3.80
2018-02-27T11:58:06.986Z,3.80
2018-02-27T12:00:34.600Z,4.43
2018-02-27T12:03:02.178Z,3.17
2018-02-27T12:05:29.649Z,2.80
2018-02-27T12:07:57.116Z,3.60
2018-02-27T12:10:24.564Z,2.87
2018-02-27T12:12:52.352Z,4.33
2018-02-27T12:15:19.877Z,2.80
2018-02-27T12:17:47.335Z,2.83
2018-02-27T12:20:15.003Z,3.50
2018-02-27T12:22:44.425Z,3.07
2018-02-27T12:25:11.870Z,4.37
2018-02-27T12:27:39.345Z,3.30
2018-02-27T12:30:06.810Z,3.43
2018-02-27T12:32:34.521Z,2.50
2018-02-27T12:35:01.974Z,4.00
2018-02-27T12:37:29.429Z,3.50
2018-02-27T12:39:56.919Z,3.53
2018-02-27T12:42:24.365Z,3.87
2018-02-27T12:44:51.846Z,3.80
2018-02-27T12:47:19.737Z,3.40
2018-02-27T12:49:47.257Z,3.63
2018-02-27T12:52:14.717Z,3.53
2018-02-27T12:54:42.174Z,4.70
2018-02-27T12:57:09.793Z,2.20
2018-02-27T12:59:37.358Z,3.87
2018-02-27T13:02:04.801Z,4.10
2018-02-27T13:04:32.261Z,3.00
2018-02-27T13:06:59.709Z,4.07
2018-02-27T13:09:27.457Z,3.60
2018-02-27T13:11:54.913Z,3.37
2018-02-27T13:14:22.365Z,2.97
2018-02-27T13:16:49.902Z,3.10
2018-02-27T13:19:17.370Z,4.23
2018-02-27T13:21:45.021Z,3.30
2018-02-27T13:24:12.457Z,3.50
2018-02-27T13:26:39.901Z,2.83
2018-02-27T13:29:07.369Z,3.50
2018-02-27T13:31:34.813Z,3.23
2018-02-27T13:34:03.000Z,3.23
2018-02-27T13:36:30.453Z,2.70
2018-02-27T13:38:57.896Z,2.63
2018-02-27T13:41:25.357Z,2.03
2018-02-27T13:43:52.828Z,3.20
2018-02-27T13:46:20.517Z,3.03
2018-02-27T13:48:48.005Z,2.17
2018-02-27T13:51:15.445Z,3.70
2018-02-27T13:53:42.929Z,2.90
2018-02-27T13:56:10.377Z,2.90
2018-02-27T13:58:38.081Z,2.10
2018-02-27T14:01:05.539Z,3.00
2018-02-27T14:03:33.080Z,2.50
2018-02-27T14:06:00.776Z,3.30
2018-02-27T14:08:28.228Z,3.60
2018-02-27T14:10:56.109Z,2.47
2018-02-27T14:13:23.552Z,4.07
2018-02-27T14:15:51.013Z,3.77
2018-02-27T14:18:18.481Z,2.40
2018-02-27T14:20:46.682Z,2.93
2018-02-27T14:23:14.378Z,2.97
2018-02-27T14:25:41.829Z,3.07
2018-02-27T14:28:09.269Z,2.60
2018-02-27T14:30:36.734Z,2.53
2018-02-27T14:33:04.310Z,2.50
2018-02-27T14:35:32.266Z,3.27
2018-02-27T14:37:59.713Z,2.93
2018-02-27T14:40:27.158Z,3.43
2018-02-27T14:42:54.657Z,2.93
2018-02-27T14:45:22.109Z,2.40
2018-02-27T14:47:49.713Z,2.17
2018-02-27T14:50:17.324Z,2.77
2018-02-27T14:52:44.812Z,2.03
2018-02-27T14:55:12.321Z,2.53
2018-02-27T14:57:39.773Z,3.00
2018-02-27T15:00:07.262Z,1.93
2018-02-27T15:02:34.705Z,2.90
2018-02-27T15:05:02.157Z,2.20
2018-02-27T15:07:29.831Z,1.90
2018-02-27T15:09:57.357Z,3.03
2018-02-27T15:12:24.841Z,2.10
2018-02-27T15:14:52.298Z,2.40
2018-02-27T15:17:19.765Z,1.80
2018-02-27T15:19:47.761Z,2.00
2018-02-27T15:22:15.198Z,2.30
2018-02-27T15:24:42.781Z,2.67
2018-02-27T15:27:10.253Z,2.60
2018-02-27T15:29:37.702Z,4.30
2018-02-27T15:32:05.165Z,2.57
2018-02-27T15:34:32.618Z,3.20
2018-02-27T15:37:00.113Z,3.60
2018-02-27T15:39:27.562Z,3.20
2018-02-27T15:41:55.017Z,2.57
2018-02-27T15:44:22.531Z,2.27
2018-02-27T15:46:49.969Z,2.33
2018-02-27T15:49:17.681Z,1.70
2018-02-27T15:51:45.213Z,2.47
2018-02-27T15:54:12.658Z,2.60
2018-02-27T15:56:40.154Z,3.63
2018-02-27T15:59:07.609Z,2.33
2018-02-27T16:01:35.361Z,2.10
2018-02-27T16:04:02.822Z,2.73
2018-02-27T16:06:30.450Z,2.20
2018-02-27T16:08:58.074Z,2.60
2018-02-27T16:11:25.522Z,2.30
2018-02-27T16:13:53.027Z,3.10
2018-02-27T16:16:20.518Z,1.73
2018-02-27T16:18:49.581Z,3.27
2018-02-27T16:21:17.069Z,2.17
2018-02-27T16:23:44.516Z,2.27
2018-02-27T16:26:12.385Z,2.13
2018-02-27T16:28:39.826Z,2.80
2018-02-27T16:31:07.319Z,2.27
2018-02-27T16:33:36.749Z,2.57
2018-02-27T16:36:04.982Z,1.70
2018-02-27T16:38:32.952Z,2.37
2018-02-27T16:41:01.974Z,1.83
2018-02-27T16:43:29.450Z,2.10
2018-02-27T16:45:56.957Z,2.23
2018-02-27T16:48:24.401Z,2.30
2018-02-27T16:50:51.881Z,2.50
2018-02-27T16:53:19.405Z,3.03
2018-02-27T16:55:46.861Z,2.70
2018-02-27T16:58:14.327Z,2.17
2018-02-27T17:00:41.794Z,2.10
2018-02-27T17:03:09.293Z,2.90
2018-02-27T17:05:36.750Z,2.60
2018-02-27T17:08:04.320Z,1.63
2018-02-27T17:10:31.814Z,2.50
2018-02-27T17:12:59.637Z,2.83
2018-02-27T17:15:27.408Z,2.77
2018-02-27T17:17:54.868Z,1.93
2018-02-27T17:20:22.313Z,3.07
2018-02-27T17:22:49.781Z,2.60
2018-02-27T17:25:17.238Z,2.70
2018-02-27T17:27:44.733Z,2.67
2018-02-27T17:30:12.184Z,2.20
2018-02-27T17:32:39.644Z,1.67
2018-02-27T17:35:07.133Z,2.93
2018-02-27T17:37:34.588Z,2.20
2018-02-27T17:40:02.885Z,2.60
2018-02-27T17:42:30.327Z,2.60
2018-02-27T17:44:57.773Z,2.73
2018-02-27T17:47:25.240Z,2.17
2018-02-27T17:49:52.760Z,2.50
2018-02-27T17:52:20.375Z,2.57
2018-02-27T17:54:47.846Z,2.50
2018-02-27T17:57:15.306Z,2.90
2018-02-27T17:59:42.778Z,2.63
2018-02-27T18:02:10.225Z,2.50
2018-02-27T18:04:38.045Z,2.40
2018-02-27T18:07:05.510Z,2.53
2018-02-27T18:09:32.968Z,2.30
2018-02-27T18:12:00.470Z,3.20
2018-02-27T18:14:28.030Z,1.90
2018-02-27T18:16:56.096Z,2.83
2018-02-27T18:19:23.592Z,2.80
2018-02-27T18:21:51.257Z,2.30
2018-02-27T18:24:18.766Z,2.17
2018-02-27T18:26:46.387Z,2.17
2018-02-27T18:29:14.186Z,2.07
2018-02-27T18:31:41.699Z,1.93
2018-02-27T18:34:09.564Z,2.47
2018-02-27T18:36:37.048Z,2.37
2018-02-27T18:39:04.510Z,3.43
2018-02-27T18:41:32.284Z,2.10
2018-02-27T18:44:00.026Z,3.13
2018-02-27T18:46:27.365Z,2.87
2018-02-27T18:48:54.897Z,2.80
2018-02-27T18:51:22.349Z,2.10
2018-02-27T18:53:50.201Z,2.30
2018-02-27T18:56:17.738Z,2.40
2018-02-27T18:58:45.228Z,3.30
2018-02-27T19:01:12.697Z,2.90
2018-02-27T19:03:40.182Z,2.97
2018-02-27T19:06:07.686Z,2.57
2018-02-27T19:08:35.138Z,3.07
2018-02-27T19:11:02.591Z,2.20
2018-02-27T19:13:30.074Z,2.83
2018-02-27T19:15:57.538Z,2.40
2018-02-27T19:18:26.372Z,2.40
2018-02-27T19:20:53.857Z,3.00
2018-02-27T19:23:21.325Z,2.80
2018-02-27T19:25:48.885Z,3.13
2018-02-27T19:28:16.336Z,3.00
2018-02-27T19:30:44.299Z,2.47
2018-02-27T19:33:11.782Z,2.50
2018-02-27T19:35:39.313Z,2.43
2018-02-27T19:38:06.868Z,2.70
2018-02-27T19:40:34.600Z,2.60
2018-02-27T19:43:02.418Z,2.60
2018-02-27T19:45:29.904Z,3.23
2018-02-27T19:47:57.382Z,2.30
2018-02-27T19:50:24.939Z,2.27
2018-02-27T19:52:52.836Z,2.37
2018-02-27T19:55:20.643Z,2.83
2018-02-27T19:57:48.944Z,3.00
2018-02-27T20:00:16.425Z,2.73
2018-02-27T20:02:43.885Z,2.40
2018-02-27T20:05:11.344Z,3.07
2018-02-27T20:07:38.975Z,2.50
2018-02-27T20:10:07.266Z,2.90
2018-02-27T20:12:34.720Z,3.13
2018-02-27T20:15:02.358Z,2.60
2018-02-27T20:17:29.834Z,2.10
2018-02-27T20:19:57.325Z,3.23
2018-02-27T20:22:30.542Z,2.10
2018-02-27T20:24:58.164Z,2.23
2018-02-27T20:27:25.617Z,3.13
2018-02-27T20:29:53.069Z,2.27
2018-02-27T20:32:21.477Z,3.03
2018-02-27T20:34:48.938Z,2.63
2018-02-27T20:37:16.945Z,2.90
2018-02-27T20:39:44.818Z,2.70
2018-02-27T20:42:12.398Z,2.30
2018-02-27T20:44:39.873Z,2.60
2018-02-27T20:47:07.334Z,3.30
2018-02-27T20:49:34.902Z,2.40
2018-02-27T20:52:02.741Z,3.07
2018-02-27T20:54:30.206Z,2.37
2018-02-27T20:56:58.427Z,2.10
2018-02-27T20:59:25.874Z,2.03
2018-02-27T21:01:53.484Z,2.97
2018-02-27T21:04:20.933Z,2.40
2018-02-27T21:06:48.389Z,2.60
2018-02-27T21:09:15.870Z,3.13
2018-02-27T21:11:43.313Z,2.70
2018-02-27T21:14:10.781Z,3.10
2018-02-27T21:16:38.257Z,3.20
2018-02-27T21:19:05.714Z,2.40
2018-02-27T21:21:33.189Z,1.20
2018-02-27T21:24:00.693Z,2.60
2018-02-27T21:26:28.488Z,3.00
2018-02-27T21:28:56.025Z,2.50
2018-02-27T21:31:23.496Z,2.80
2018-02-27T21:33:50.953Z,3.70
2018-02-27T21:36:18.562Z,2.73
2018-02-27T21:38:46.256Z,2.40
2018-02-27T21:41:13.701Z,2.80
2018-02-27T21:43:41.480Z,2.80
2018-02-27T21:46:09.002Z,2.70
2018-02-27T21:48:36.425Z,3.10
2018-02-27T21:51:04.099Z,2.97
2018-02-27T21:53:31.562Z,2.47
2018-02-27T21:55:59.017Z,3.17
2018-02-27T21:58:26.550Z,3.00
2018-02-27T22:00:53.993Z,3.00
2018-02-27T22:03:21.558Z,2.50
2018-02-27T22:05:49.896Z,2.27
2018-02-27T22:08:17.342Z,2.83
2018-02-27T22:10:44.818Z,3.10
2018-02-27T22:13:13.162Z,3.03
2018-02-27T22:15:40.655Z,2.00
2018-02-27T22:18:08.109Z,2.60
2018-02-27T22:20:35.553Z,2.63
2018-02-27T22:23:03.053Z,3.27
2018-02-27T22:25:30.510Z,3.27
2018-02-27T22:27:57.973Z,3.27
2018-02-27T22:30:25.517Z,2.40
2018-02-27T22:32:52.957Z,3.50
2018-02-27T22:35:20.423Z,2.50
2018-02-27T22:37:48.852Z,2.83
2018-02-27T22:40:16.457Z,2.90
2018-02-27T22:42:43.906Z,3.20
2018-02-27T22:45:11.474Z,2.93
2018-02-27T22:47:38.937Z,2.47
2018-02-27T22:50:06.450Z,2.43
2018-02-27T22:52:33.917Z,3.60
2018-02-27T22:55:01.372Z,3.00
2018-02-27T22:57:28.821Z,2.70
2018-02-27T22:59:56.286Z,2.77
2018-02-27T23:02:23.761Z,3.30
2018-02-27T23:04:51.361Z,2.83
2018-02-27T23:07:18.845Z,1.90
2018-02-27T23:09:46.288Z,2.73
2018-02-27T23:12:13.757Z,2.83
2018-02-27T23:14:41.201Z,2.87
2018-02-27T23:17:08.809Z,2.43
2018-02-27T23:19:36.253Z,3.00
2018-02-27T23:22:03.703Z,1.90
2018-02-27T23:24:39.465Z,2.90
2018-02-27T23:27:09.479Z,2.67
2018-02-27T23:29:40.353Z,3.03
2018-02-27T23:32:08.850Z,3.43
2018-02-27T23:34:39.256Z,3.70
2018-02-27T23:37:06.714Z,2.90
2018-02-27T23:39:34.370Z,2.63
2018-02-27T23:42:01.809Z,2.63
2018-02-27T23:44:29.275Z,3.40
2018-02-27T23:46:57.145Z,3.47
2018-02-27T23:49:24.581Z,3.37
2018-02-27T23:51:52.513Z,3.53
2018-02-27T23:54:19.953Z,3.30
2018-02-27T23:56:47.396Z,3.97
2018-02-27T23:59:14.857Z,2.90
